Time;durP1;ratioP1;P1;durP2;ratioP2;P2;SDS_P1;SDS_P2;PMS_P1;PMS_P2;Temp;Humidity;BMP_temperature;BMP_pressure;BME280_temperature;BME280_humidity;BME280_pressure;Samples;Min_cycle;Max_cycle;Signal;HPM_P1;HPM_P2
2023/05/28 00:02:01;;;;;;;;;;;;;;;28.36;40.57;94285.94;4990374;28;7027;-63
2023/05/28 00:04:28;;;;;;;;;;;;;;;28.35;40.98;94278.94;4976616;28;7076;-63
2023/05/28 00:07:14;;;;;;;;;;;;;;;28.35;41.01;94261.59;4966724;28;7311;-63
2023/05/28 00:09:46;;;;;;;;;;;;;;;28.35;40.82;94262.34;4971455;28;8992;-62
2023/05/28 00:12:12;;;;;;;;;;;;;;;28.35;41.11;94264.34;4959842;28;7045;-63
2023/05/28 00:15:05;;;;;;;;;;;;;;;28.35;40.86;94256.81;4980685;28;9032;-63
2023/05/28 00:17:33;;;;;;;;;;;;;;;28.38;40.80;94268.06;4973867;28;7238;-63
2023/05/28 00:20:28;;;;;;;;;;;;;;;28.36;40.72;94255.50;4985283;28;7232;-63
2023/05/28 00:23:06;;;;;;;;;;;;;;;28.35;40.58;94256.06;4992733;28;8743;-63
2023/05/28 00:25:46;;;;;;;;;;;;;;;28.32;41.29;94252.31;4977617;28;7702;-63
2023/05/28 00:28:28;;;;;;;;;;;;;;;28.30;40.78;94245.84;4977509;28;7029;-63
2023/05/28 00:31:03;;;;;;;;;;;;;;;28.32;41.22;94252.31;5019631;28;9058;-64
2023/05/28 00:33:29;;;;;;;;;;;;;;;28.32;41.27;94246.78;4985819;28;7293;-64
2023/05/28 00:36:10;;;;;;;;;;;;;;;28.31;41.19;94248.09;5015185;28;7276;-63
2023/05/28 00:38:37;;;;;;;;;;;;;;;28.34;41.01;94249.00;4991922;28;8081;-63
2023/05/28 00:41:22;;;;;;;;;;;;;;;28.34;40.60;94255.31;5011307;28;8684;-63
2023/05/28 00:43:51;;;;;;;;;;;;;;;28.33;40.78;94242.75;5010110;28;9188;-63
2023/05/28 00:46:21;;;;;;;;;;;;;;;28.31;40.66;94244.56;5001056;28;7193;-64
2023/05/28 00:48:49;;;;;;;;;;;;;;;28.32;40.99;94244.03;4993424;28;7293;-63
2023/05/28 00:51:18;;;;;;;;;;;;;;;28.32;40.76;94240.50;5015246;28;7448;-63
2023/05/28 00:54:29;;;;;;;;;;;;;;;28.32;41.19;94240.50;4996272;28;9105;-63
2023/05/28 00:57:02;;;;;;;;;;;;;;;28.31;41.17;94239.78;4970650;28;7117;-63
2023/05/28 00:59:34;;;;;;;;;;;;;;;28.30;40.69;94237.53;4979521;28;9384;-63
2023/05/28 01:02:01;;;;;;;;;;;;;;;28.30;40.88;94245.84;4991196;28;7500;-63
2023/05/28 01:04:35;;;;;;;;;;;;;;;28.27;41.23;94235.84;4992469;28;8688;-63
2023/05/28 01:07:04;;;;;;;;;;;;;;;28.25;41.15;94235.63;4992591;28;8928;-63
2023/05/28 01:09:33;;;;;;;;;;;;;;;28.26;40.91;94231.59;4991705;28;7432;-63
2023/05/28 01:12:03;;;;;;;;;;;;;;;28.20;41.50;94222.66;4990377;28;9043;-63
2023/05/28 01:14:31;;;;;;;;;;;;;;;28.20;41.35;94228.19;4974829;28;9215;-63
2023/05/28 01:16:58;;;;;;;;;;;;;;;28.18;41.28;94219.69;4977631;28;7625;-63
2023/05/28 01:19:27;;;;;;;;;;;;;;;28.15;41.30;94220.72;4974790;28;9229;-63
2023/05/28 01:22:03;;;;;;;;;;;;;;;28.15;41.30;94221.47;4979579;28;7121;-63
2023/05/28 01:24:35;;;;;;;;;;;;;;;28.16;41.21;94222.22;4974456;28;7282;-63
2023/05/28 01:27:16;;;;;;;;;;;;;;;28.14;41.34;94208.19;4969380;28;7210;-63
2023/05/28 01:29:46;;;;;;;;;;;;;;;28.14;41.03;94210.97;4972154;28;7144;-63
2023/05/28 01:32:12;;;;;;;;;;;;;;;28.10;41.17;94210.53;4989603;28;7444;-64
2023/05/28 01:34:38;;;;;;;;;;;;;;;28.12;41.33;94217.00;5018901;28;7050;-64
2023/05/28 01:37:11;;;;;;;;;;;;;;;28.09;41.29;94201.50;5065705;28;7043;-63
2023/05/28 01:39:46;;;;;;;;;;;;;;;28.11;41.68;94203.72;5040682;28;7334;-63
2023/05/28 01:42:17;;;;;;;;;;;;;;;28.07;41.57;94192.97;5050705;28;9416;-63
2023/05/28 01:44:46;;;;;;;;;;;;;;;28.08;41.27;94202.00;5050647;28;7227;-63
2023/05/28 01:47:17;;;;;;;;;;;;;;;28.09;41.38;94197.97;5049829;28;7439;-63
2023/05/28 01:49:44;;;;;;;;;;;;;;;28.08;41.59;94202.75;5044212;28;9312;-63
2023/05/28 01:52:19;;;;;;;;;;;;;;;28.08;41.34;94204.78;5049663;28;9037;-63
2023/05/28 01:54:47;;;;;;;;;;;;;;;28.06;41.43;94202.53;5085478;28;6936;-63
2023/05/28 01:57:22;;;;;;;;;;;;;;;28.04;41.92;94187.75;5068813;28;7292;-63
2023/05/28 01:59:49;;;;;;;;;;;;;;;28.06;41.44;94199.03;5074413;28;7041;-63
2023/05/28 02:02:21;;;;;;;;;;;;;;;28.06;41.63;94205.31;5053911;28;9604;-63
2023/05/28 02:05:20;;;;;;;;;;;;;;;28.05;41.85;94206.59;5052390;28;7463;-62
2023/05/28 02:07:47;;;;;;;;;;;;;;;28.05;41.28;94205.84;4972441;28;8514;-62
2023/05/28 02:10:13;;;;;;;;;;;;;;;28.05;41.73;94200.31;4951993;28;7048;-63
2023/05/28 02:12:47;;;;;;;;;;;;;;;28.02;41.77;94196.59;4972770;28;7118;-63
2023/05/28 02:15:23;;;;;;;;;;;;;;;28.03;41.55;94197.34;4969765;28;7038;-63
2023/05/28 02:18:05;;;;;;;;;;;;;;;28.01;41.70;94199.91;4972595;28;9548;-63
2023/05/28 02:20:36;;;;;;;;;;;;;;;28.03;41.67;94194.56;4952542;28;7534;-63
2023/05/28 02:23:23;;;;;;;;;;;;;;;28.02;41.67;94195.84;4972758;28;7307;-63
2023/05/28 02:25:51;;;;;;;;;;;;;;;28.01;41.53;94197.13;4953504;28;9119;-63
2023/05/28 02:28:31;;;;;;;;;;;;;;;27.98;41.58;94198.94;4938679;28;7513;-63
2023/05/28 02:31:03;;;;;;;;;;;;;;;27.97;41.52;94193.91;4952819;28;7266;-64
2023/05/28 02:33:39;;;;;;;;;;;;;;;27.98;41.94;94193.41;4970710;28;7036;-63
2023/05/28 02:36:20;;;;;;;;;;;;;;;27.98;41.61;94198.19;4963922;28;8573;-63
2023/05/28 02:38:47;;;;;;;;;;;;;;;27.98;41.67;94195.41;4974578;28;9233;-63
2023/05/28 02:41:14;;;;;;;;;;;;;;;27.95;41.64;94190.94;4970149;28;7042;-63
2023/05/28 02:43:43;;;;;;;;;;;;;;;27.92;41.64;94181.69;5000827;28;9006;-63
2023/05/28 02:46:25;;;;;;;;;;;;;;;27.97;41.62;94199.44;5059588;28;9143;-64
2023/05/28 02:49:17;;;;;;;;;;;;;;;27.97;41.52;94188.38;5066549;28;7115;-64
2023/05/28 02:52:01;;;;;;;;;;;;;;;27.96;41.56;94193.16;5013240;28;9808;-63
2023/05/28 02:54:37;;;;;;;;;;;;;;;27.95;41.36;94191.66;5014222;28;7132;-62
2023/05/28 02:57:06;;;;;;;;;;;;;;;27.95;41.60;94196.47;5018133;28;7272;-63
2023/05/28 02:59:44;;;;;;;;;;;;;;;27.93;41.66;94194.22;5017144;28;8788;-63
2023/05/28 03:02:20;;;;;;;;;;;;;;;27.93;41.49;94191.44;4997898;28;9718;-63
2023/05/28 03:04:46;;;;;;;;;;;;;;;27.95;41.69;94197.19;5028341;28;7058;-63
2023/05/28 03:07:18;;;;;;;;;;;;;;;27.93;42.00;94188.69;5016483;28;7225;-63
2023/05/28 03:09:47;;;;;;;;;;;;;;;27.96;41.59;94197.94;5005038;28;7665;-63
2023/05/28 03:12:15;;;;;;;;;;;;;;;27.99;41.78;94199.69;5030840;28;9059;-63
2023/05/28 03:14:42;;;;;;;;;;;;;;;27.99;41.56;94202.44;5012730;28;9877;-63
2023/05/28 03:17:09;;;;;;;;;;;;;;;27.98;41.63;94195.41;5014460;28;7888;-62
2023/05/28 03:19:40;;;;;;;;;;;;;;;27.97;41.46;94191.91;4993366;28;7053;-63
2023/05/28 03:22:06;;;;;;;;;;;;;;;28.02;41.56;94201.38;5011915;28;7043;-64
2023/05/28 03:24:34;;;;;;;;;;;;;;;28.03;41.60;94205.63;5031219;28;9285;-63
2023/05/28 03:27:02;;;;;;;;;;;;;;;28.04;41.68;94202.34;5014830;28;7246;-63
2023/05/28 03:29:28;;;;;;;;;;;;;;;28.04;41.39;94205.09;5047403;28;9015;-63
2023/05/28 03:31:54;;;;;;;;;;;;;;;28.04;41.35;94198.81;5045894;28;7264;-56
2023/05/28 03:34:24;;;;;;;;;;;;;;;28.02;41.33;94195.84;5066280;28;7275;-56
2023/05/28 03:36:57;;;;;;;;;;;;;;;28.04;41.28;94196.06;5037459;28;7878;-56
2023/05/28 03:39:23;;;;;;;;;;;;;;;27.98;41.23;94192.66;5039188;28;7092;-56
2023/05/28 03:41:49;;;;;;;;;;;;;;;28.01;41.72;94199.91;5063995;28;9005;-56
2023/05/28 03:44:17;;;;;;;;;;;;;;;28.00;41.25;94201.16;5056975;28;9426;-56
2023/05/28 03:46:43;;;;;;;;;;;;;;;28.01;41.56;94194.38;5053839;28;8516;-56
2023/05/28 03:49:11;;;;;;;;;;;;;;;28.03;41.51;94192.56;5036787;28;9047;-56
2023/05/28 03:51:41;;;;;;;;;;;;;;;28.03;41.59;94198.09;5037290;28;8978;-56
2023/05/28 03:54:37;;;;;;;;;;;;;;;28.03;41.38;94198.09;5051142;28;9119;-56
2023/05/28 03:57:22;;;;;;;;;;;;;;;28.03;41.39;94194.56;4992482;28;7412;-56
2023/05/28 03:59:58;;;;;;;;;;;;;;;28.01;41.30;94195.13;4974899;28;7123;-55
2023/05/28 04:02:28;;;;;;;;;;;;;;;27.98;41.69;94198.94;4987732;28;7264;-56
2023/05/28 04:04:55;;;;;;;;;;;;;;;28.01;40.94;94205.44;4991720;28;7042;-56
2023/05/28 04:07:22;;;;;;;;;;;;;;;28.01;41.62;94202.66;4972143;28;7211;-56
2023/05/28 04:09:48;;;;;;;;;;;;;;;28.01;41.74;94203.41;4985475;28;9034;-56
2023/05/28 04:12:14;;;;;;;;;;;;;;;27.99;41.49;94202.44;4972894;28;7206;-56
2023/05/28 04:14:58;;;;;;;;;;;;;;;28.01;41.14;94205.44;4993298;28;7289;-56
2023/05/28 04:17:27;;;;;;;;;;;;;;;27.98;41.42;94206.47;4975561;28;7655;-56
2023/05/28 04:19:54;;;;;;;;;;;;;;;28.01;41.34;94202.66;4992546;28;7578;-56
2023/05/28 04:22:23;;;;;;;;;;;;;;;27.98;41.82;94206.47;4977808;28;9031;-57
2023/05/28 04:24:55;;;;;;;;;;;;;;;28.01;41.70;94213.72;4977195;28;9058;-56
2023/05/28 04:27:28;;;;;;;;;;;;;;;27.97;41.32;94216.78;5003001;28;8699;-56
2023/05/28 04:29:56;;;;;;;;;;;;;;;27.99;41.30;94216.28;4990825;28;7273;-56
2023/05/28 04:32:24;;;;;;;;;;;;;;;27.99;41.11;94224.56;4991781;28;8813;-56
2023/05/28 04:34:53;;;;;;;;;;;;;;;27.98;41.51;94217.53;5067687;28;7069;-56
2023/05/28 04:37:21;;;;;;;;;;;;;;;27.99;41.72;94224.56;5043031;28;8258;-56
2023/05/28 04:39:50;;;;;;;;;;;;;;;27.98;41.65;94220.31;5051478;28;7522;-56
2023/05/28 04:42:20;;;;;;;;;;;;;;;27.96;41.60;94222.81;5033840;28;6976;-56
2023/05/28 04:44:48;;;;;;;;;;;;;;;27.98;40.93;94234.13;5052303;28;7283;-56
2023/05/28 04:47:15;;;;;;;;;;;;;;;27.97;41.55;94233.38;5049052;28;7821;-56
2023/05/28 04:49:43;;;;;;;;;;;;;;;27.96;41.36;94226.34;5049946;28;7018;-56
2023/05/28 04:52:19;;;;;;;;;;;;;;;27.98;41.29;94231.34;5033762;28;7032;-56
2023/05/28 04:54:51;;;;;;;;;;;;;;;27.93;41.35;94226.63;5036400;28;7094;-56
2023/05/28 04:57:17;;;;;;;;;;;;;;;27.96;41.33;94242.19;5052579;28;7241;-56
2023/05/28 04:59:51;;;;;;;;;;;;;;;27.93;41.54;94232.16;5063898;28;7211;-56
2023/05/28 05:02:18;;;;;;;;;;;;;;;27.93;41.01;94232.16;5046830;28;7278;-56
2023/05/28 05:05:05;;;;;;;;;;;;;;;27.94;41.89;94228.13;5033325;28;7031;-56
2023/05/28 05:07:51;;;;;;;;;;;;;;;27.96;41.59;94234.63;5039203;28;9059;-56
2023/05/28 05:10:25;;;;;;;;;;;;;;;27.93;41.45;94232.16;5052473;28;7060;-56
2023/05/28 05:13:00;;;;;;;;;;;;;;;27.91;41.16;94235.47;5053671;28;9086;-56
2023/05/28 05:15:40;;;;;;;;;;;;;;;27.89;41.48;94237.28;5035193;28;7005;-56
2023/05/28 05:18:19;;;;;;;;;;;;;;;27.85;41.65;94232.06;5035398;28;7296;-56
2023/05/28 05:21:01;;;;;;;;;;;;;;;27.87;41.65;94237.81;5052209;28;7059;-56
2023/05/28 05:23:58;;;;;;;;;;;;;;;27.87;41.86;94239.81;5035641;28;8738;-56
2023/05/28 05:26:25;;;;;;;;;;;;;;;27.81;41.51;94236.41;4965445;28;8110;-56
2023/05/28 05:29:02;;;;;;;;;;;;;;;27.82;41.53;94237.91;4956469;28;9009;-56
2023/05/28 05:31:34;;;;;;;;;;;;;;;27.82;41.72;94238.63;4988718;28;8746;-56
2023/05/28 05:34:15;;;;;;;;;;;;;;;27.79;41.62;94238.97;4973197;28;7036;-56
2023/05/28 05:36:42;;;;;;;;;;;;;;;27.80;41.51;94246.72;4956080;28;8109;-56
2023/05/28 05:39:16;;;;;;;;;;;;;;;27.81;41.73;94248.22;4961945;28;9020;-56
2023/05/28 05:41:59;;;;;;;;;;;;;;;27.78;41.38;94243.75;4972056;28;9070;-56
2023/05/28 05:44:46;;;;;;;;;;;;;;;27.80;41.58;94245.97;4969179;28;7231;-56
2023/05/28 05:47:26;;;;;;;;;;;;;;;27.77;41.85;94238.75;4972059;28;7562;-56
2023/05/28 05:50:03;;;;;;;;;;;;;;;27.78;42.21;94246.50;4961049;28;7077;-57
2023/05/28 05:53:03;;;;;;;;;;;;;;;27.74;41.70;94254.38;4968152;28;7243;-56
2023/05/28 05:55:49;;;;;;;;;;;;;;;27.79;42.04;94248.00;4941145;29;7237;-56
2023/05/28 05:58:50;;;;;;;;;;;;;;;27.79;41.77;94250.78;4922530;29;7279;-56
2023/05/28 06:01:34;;;;;;;;;;;;;;;27.79;42.17;94248.00;4914001;29;7270;-56
2023/05/28 06:04:02;;;;;;;;;;;;;;;27.78;42.25;94240.97;4913933;29;7102;-56
2023/05/28 06:07:14;;;;;;;;;;;;;;;27.76;42.11;94251.06;4915248;29;9280;-56
2023/05/28 06:09:42;;;;;;;;;;;;;;;27.76;41.96;94243.53;4918052;29;7121;-56
2023/05/28 06:12:08;;;;;;;;;;;;;;;27.80;41.87;94255.00;4945707;28;9013;-56
2023/05/28 06:14:36;;;;;;;;;;;;;;;27.81;41.33;94250.25;4952912;28;7203;-56
2023/05/28 06:17:03;;;;;;;;;;;;;;;27.82;40.86;94257.28;4947719;28;8742;-56
2023/05/28 06:19:30;;;;;;;;;;;;;;;27.81;40.69;94255.75;4918277;29;7500;-56
2023/05/28 06:21:59;;;;;;;;;;;;;;;27.81;40.58;94253.75;4934304;28;8796;-55
2023/05/28 06:24:24;;;;;;;;;;;;;;;27.75;40.31;94244.81;4929310;28;7046;-56
2023/05/28 06:26:51;;;;;;;;;;;;;;;27.74;39.63;94250.84;4933241;29;8972;-56
2023/05/28 06:29:17;;;;;;;;;;;;;;;27.76;39.28;94254.59;4932257;28;7144;-56
2023/05/28 06:31:44;;;;;;;;;;;;;;;27.75;39.49;94250.34;4962428;28;7259;-56
2023/05/28 06:34:16;;;;;;;;;;;;;;;27.73;39.55;94246.63;4985542;28;7255;-56
2023/05/28 06:36:43;;;;;;;;;;;;;;;27.76;39.08;94242.78;5063687;28;7075;-56
2023/05/28 06:39:08;;;;;;;;;;;;;;;27.76;39.53;94246.28;5065894;28;7006;-56
2023/05/28 06:41:34;;;;;;;;;;;;;;;27.75;39.39;94241.31;5044664;28;7054;-56
2023/05/28 06:44:06;;;;;;;;;;;;;;;27.77;39.08;94252.56;5062952;28;8406;-56
2023/05/28 06:46:32;;;;;;;;;;;;;;;27.79;39.78;94252.78;5076794;28;7262;-56
2023/05/28 06:49:00;;;;;;;;;;;;;;;27.74;39.71;94246.06;5046893;28;7031;-56
2023/05/28 06:51:26;;;;;;;;;;;;;;;27.74;39.33;94248.09;5050346;28;9668;-56
2023/05/28 06:53:57;;;;;;;;;;;;;;;27.77;39.98;94252.56;5070599;28;7332;-56
2023/05/28 06:56:23;;;;;;;;;;;;;;;27.75;40.02;94242.06;5052350;28;9017;-56
2023/05/28 06:58:50;;;;;;;;;;;;;;;27.77;39.35;94242.25;5047969;28;9027;-56
2023/05/28 07:01:17;;;;;;;;;;;;;;;27.74;39.60;94243.31;5044622;28;8770;-56
2023/05/28 07:03:49;;;;;;;;;;;;;;;27.74;39.00;94242.56;5060590;28;8685;-56
2023/05/28 07:06:18;;;;;;;;;;;;;;;27.71;39.77;94235.34;5044138;28;9010;-56
2023/05/28 07:08:45;;;;;;;;;;;;;;;27.73;39.95;94244.56;5029964;28;7180;-56
2023/05/28 07:11:12;;;;;;;;;;;;;;;27.75;39.60;94244.06;5063057;28;7216;-56
2023/05/28 07:13:43;;;;;;;;;;;;;;;27.79;41.20;94244.50;5050175;28;7044;-56
2023/05/28 07:16:13;;;;;;;;;;;;;;;27.85;41.54;94243.13;5054141;28;7025;-56
2023/05/28 07:18:43;;;;;;;;;;;;;;;27.86;40.69;94252.16;5040995;28;7029;-56
2023/05/28 07:21:09;;;;;;;;;;;;;;;27.88;40.76;94250.38;5044659;28;7047;-55
2023/05/28 07:23:38;;;;;;;;;;;;;;;27.89;40.64;94246.31;5041899;28;7007;-56
2023/05/28 07:26:04;;;;;;;;;;;;;;;27.90;40.53;94247.06;5045492;28;7239;-56
2023/05/28 07:28:43;;;;;;;;;;;;;;;27.91;40.38;94249.28;5034143;28;7090;-56
2023/05/28 07:31:13;;;;;;;;;;;;;;;27.93;41.15;94248.75;5038038;28;7576;-56
2023/05/28 07:33:50;;;;;;;;;;;;;;;27.91;41.09;94237.47;5049015;28;8729;-56
2023/05/28 07:36:22;;;;;;;;;;;;;;;27.88;41.06;94235.78;5045825;28;6910;-60
2023/05/28 07:38:59;;;;;;;;;;;;;;;27.95;41.17;94241.41;5058796;28;9066;-61
2023/05/28 07:41:34;;;;;;;;;;;;;;;27.95;40.99;94243.47;5030537;28;7122;-60
2023/05/28 07:44:07;;;;;;;;;;;;;;;27.93;41.31;94243.22;5032091;28;7215;-61
2023/05/28 07:46:38;;;;;;;;;;;;;;;27.97;41.25;94247.19;5021931;28;7097;-60
2023/05/28 07:49:06;;;;;;;;;;;;;;;27.98;41.26;94245.19;5029668;28;8996;-60
2023/05/28 07:51:34;;;;;;;;;;;;;;;28.00;41.21;94231.56;5053498;28;7435;-60
2023/05/28 07:54:06;;;;;;;;;;;;;;;27.98;41.40;94234.13;5030343;28;7208;-60
2023/05/28 07:56:48;;;;;;;;;;;;;;;28.00;41.35;94235.09;5033906;28;8790;-60
2023/05/28 07:59:28;;;;;;;;;;;;;;;27.99;41.77;94235.63;5024444;28;7038;-60
2023/05/28 08:02:06;;;;;;;;;;;;;;;28.01;41.75;94238.59;5051596;28;7071;-60
2023/05/28 08:04:44;;;;;;;;;;;;;;;28.01;41.54;94227.53;5019097;28;7363;-60
2023/05/28 08:07:18;;;;;;;;;;;;;;;28.02;41.98;94215.94;5032288;28;9002;-60
2023/05/28 08:09:50;;;;;;;;;;;;;;;28.03;42.38;94231.28;5030844;28;7592;-60
2023/05/28 08:12:16;;;;;;;;;;;;;;;28.05;42.24;94223.19;5040770;28;7391;-61
2023/05/28 08:14:46;;;;;;;;;;;;;;;28.06;41.81;94226.69;5047481;28;7061;-60
2023/05/28 08:17:21;;;;;;;;;;;;;;;28.06;42.30;94223.91;5069486;28;7158;-60
2023/05/28 08:19:54;;;;;;;;;;;;;;;28.06;41.73;94226.69;5044500;28;7040;-60
2023/05/28 08:22:24;;;;;;;;;;;;;;;28.06;41.79;94223.91;5069851;28;7212;-61
2023/05/28 08:25:06;;;;;;;;;;;;;;;28.08;41.72;94229.66;5082206;28;7211;-61
2023/05/28 08:27:35;;;;;;;;;;;;;;;28.07;42.25;94223.41;5076512;28;9036;-60
2023/05/28 08:30:08;;;;;;;;;;;;;;;28.13;41.45;94226.06;5050281;28;9295;-60
2023/05/28 08:32:34;;;;;;;;;;;;;;;28.10;42.03;94218.84;5041898;28;7202;-60
2023/05/28 08:35:02;;;;;;;;;;;;;;;28.11;41.79;94218.28;5045605;28;7211;-60
2023/05/28 08:37:29;;;;;;;;;;;;;;;28.13;41.64;94217.75;5053559;28;7249;-61
2023/05/28 08:39:56;;;;;;;;;;;;;;;28.14;41.56;94213.72;5059194;28;9839;-60
2023/05/28 08:42:31;;;;;;;;;;;;;;;28.14;41.32;94210.97;5059891;28;9898;-61
2023/05/28 08:45:07;;;;;;;;;;;;;;;28.18;41.77;94211.38;5047388;28;7480;-61
2023/05/28 08:47:33;;;;;;;;;;;;;;;28.15;41.82;94210.41;5050359;28;9097;-60
2023/05/28 08:50:05;;;;;;;;;;;;;;;28.15;41.93;94215.19;5041388;28;7047;-60
2023/05/28 08:52:32;;;;;;;;;;;;;;;28.16;42.00;94208.41;5059165;28;7054;-62
2023/05/28 08:55:00;;;;;;;;;;;;;;;28.17;41.37;94207.13;5058652;28;9033;-63
2023/05/28 08:57:29;;;;;;;;;;;;;;;28.16;41.71;94200.84;5043813;28;8714;-62
2023/05/28 08:59:58;;;;;;;;;;;;;;;28.20;41.86;94204.03;5067426;28;7127;-64
2023/05/28 09:02:48;;;;;;;;;;;;;;;28.18;41.56;94209.38;5046823;28;7155;-63
2023/05/28 09:05:20;;;;;;;;;;;;;;;28.20;41.63;94203.28;5048145;28;7041;-63
2023/05/28 09:07:46;;;;;;;;;;;;;;;28.17;41.74;94199.56;5046082;28;7221;-63
2023/05/28 09:10:14;;;;;;;;;;;;;;;28.19;41.52;94197.00;5046326;28;9803;-62
2023/05/28 09:13:01;;;;;;;;;;;;;;;28.22;41.02;94201.50;5056307;28;7190;-63
2023/05/28 09:15:29;;;;;;;;;;;;;;;28.21;41.10;94199.97;5060259;28;7456;-62
2023/05/28 09:18:01;;;;;;;;;;;;;;;28.25;41.39;94197.63;5049591;28;9191;-62
2023/05/28 09:20:43;;;;;;;;;;;;;;;28.26;40.69;94204.69;5045013;28;9125;-63
2023/05/28 09:23:28;;;;;;;;;;;;;;;28.23;41.93;94194.66;5069631;28;7019;-63
2023/05/28 09:26:33;;;;;;;;;;;;;;;28.24;41.78;94210.00;5076780;28;6871;-62
2023/05/28 09:29:19;;;;;;;;;;;;;;;28.26;41.75;94193.59;5005008;28;8660;-62
2023/05/28 09:32:03;;;;;;;;;;;;;;;28.23;41.61;94194.66;5009859;28;7286;-61
2023/05/28 09:35:10;;;;;;;;;;;;;;;28.25;41.07;94202.44;5004825;28;7035;-61
2023/05/28 09:38:08;;;;;;;;;;;;;;;28.24;40.95;94195.41;4986691;28;7064;-62
2023/05/28 09:41:24;;;;;;;;;;;;;;;28.23;41.12;94200.19;4949579;29;9030;-61
2023/05/28 09:44:02;;;;;;;;;;;;;;;28.23;41.02;94193.94;4928752;29;9041;-61
2023/05/28 09:47:21;;;;;;;;;;;;;;;28.25;40.78;94194.88;4919584;29;7050;-61
2023/05/28 09:49:56;;;;;;;;;;;;;;;28.25;43.07;94197.63;4861508;29;7141;-62
2023/05/28 09:52:30;;;;;;;;;;;;;;;28.26;42.21;94192.84;4861836;29;7107;-62
2023/05/28 09:54:59;;;;;;;;;;;;;;;28.29;42.07;94197.34;4846572;29;7250;-61
2023/05/28 09:57:40;;;;;;;;;;;;;;;28.29;41.30;94191.81;4870215;29;7272;-62
2023/05/28 10:00:16;;;;;;;;;;;;;;;28.29;41.26;94198.09;4849498;29;7014;-62
2023/05/28 10:03:04;;;;;;;;;;;;;;;28.29;41.51;94191.81;4843187;29;7055;-62
2023/05/28 10:05:33;;;;;;;;;;;;;;;28.27;41.42;94186.78;4858801;29;7235;-63
2023/05/28 10:08:01;;;;;;;;;;;;;;;28.28;41.50;94187.53;4879290;29;7056;-62
2023/05/28 10:10:57;;;;;;;;;;;;;;;28.31;41.51;94198.28;4883850;29;7288;-63
2023/05/28 10:13:27;;;;;;;;;;;;;;;28.32;41.53;94193.47;4817500;29;8207;-63
2023/05/28 10:16:25;;;;;;;;;;;;;;;28.35;40.58;94195.19;4825520;29;7265;-62
2023/05/28 10:18:56;;;;;;;;;;;;;;;28.34;41.28;94190.94;4816332;29;7038;-62
2023/05/28 10:21:38;;;;;;;;;;;;;;;28.38;41.22;94198.91;4826084;29;7118;-62
2023/05/28 10:24:05;;;;;;;;;;;;;;;28.36;40.81;94191.16;4844559;29;7100;-62
2023/05/28 10:26:35;;;;;;;;;;;;;;;28.38;40.70;94187.84;4897738;29;9379;-62
2023/05/28 10:29:14;;;;;;;;;;;;;;;28.36;40.41;94189.13;4899710;29;9013;-62
2023/05/28 10:32:05;;;;;;;;;;;;;;;28.40;40.04;94188.81;4912517;29;7175;-62
2023/05/28 10:34:44;;;;;;;;;;;;;;;28.41;40.16;94187.53;4897493;29;7233;-63
2023/05/28 10:37:12;;;;;;;;;;;;;;;28.40;40.16;94182.53;4897886;29;7134;-63
2023/05/28 10:39:53;;;;;;;;;;;;;;;28.40;39.68;94174.97;4900525;29;7216;-63
2023/05/28 10:42:32;;;;;;;;;;;;;;;28.40;40.04;94186.03;4893654;29;7176;-63
2023/05/28 10:45:07;;;;;;;;;;;;;;;28.41;39.57;94182.00;4897716;29;7220;-64
2023/05/28 10:47:50;;;;;;;;;;;;;;;28.43;39.62;94184.97;4898439;29;9436;-63
2023/05/28 10:50:21;;;;;;;;;;;;;;;28.43;39.71;94184.97;4967225;28;7120;-64
2023/05/28 10:53:19;;;;;;;;;;;;;;;28.44;39.71;94180.19;4988853;28;7072;-64
2023/05/28 10:55:55;;;;;;;;;;;;;;;28.45;39.65;94179.63;5056314;28;8622;-63
2023/05/28 10:58:29;;;;;;;;;;;;;;;28.42;39.84;94177.22;5048519;28;8667;-63
2023/05/28 11:01:42;;;;;;;;;;;;;;;28.44;40.15;94177.41;5044249;28;7296;-62
2023/05/28 11:04:08;;;;;;;;;;;;;;;28.46;39.56;94177.63;5022990;28;7435;-61
2023/05/28 11:07:14;;;;;;;;;;;;;;;28.46;40.10;94170.06;5004991;28;7170;-63
2023/05/28 11:09:48;;;;;;;;;;;;;;;28.46;40.57;94174.84;5000312;28;9143;-63
2023/05/28 11:12:14;;;;;;;;;;;;;;;28.45;40.07;94171.34;4992509;28;8927;-62
2023/05/28 11:14:50;;;;;;;;;;;;;;;28.46;39.92;94170.06;4992257;28;9836;-63
2023/05/28 11:17:49;;;;;;;;;;;;;;;28.46;39.92;94172.84;4980130;28;7251;-62
2023/05/28 11:20:21;;;;;;;;;;;;;;;28.51;39.95;94171.97;4937021;28;7376;-62
2023/05/28 11:23:27;;;;;;;;;;;;;;;28.54;39.61;94172.91;4954686;28;7106;-62
2023/05/28 11:26:05;;;;;;;;;;;;;;;28.51;40.17;94169.22;4955654;28;7252;-64
2023/05/28 11:28:32;;;;;;;;;;;;;;;28.54;39.45;94167.38;4955688;28;8769;-63
2023/05/28 11:31:42;;;;;;;;;;;;;;;28.58;39.44;94168.56;4939998;28;9052;-63
2023/05/28 11:34:13;;;;;;;;;;;;;;;28.54;39.60;94165.34;4938077;28;7030;-62
2023/05/28 11:36:45;;;;;;;;;;;;;;;28.54;39.17;94153.53;4955265;28;7006;-63
2023/05/28 11:39:22;;;;;;;;;;;;;;;28.58;39.37;94170.63;4955165;28;7444;-63
2023/05/28 11:41:50;;;;;;;;;;;;;;;28.57;39.08;94163.56;4923323;29;6994;-63
2023/05/28 11:44:27;;;;;;;;;;;;;;;28.54;39.45;94156.31;4978819;28;7169;-62
2023/05/28 11:46:55;;;;;;;;;;;;;;;28.56;39.15;94164.84;4997693;28;8665;-62
2023/05/28 11:49:30;;;;;;;;;;;;;;;28.57;39.31;94161.56;5012640;28;7033;-62
2023/05/28 11:52:31;;;;;;;;;;;;;;;28.58;39.49;94151.97;4997488;28;7156;-62
2023/05/28 11:55:01;;;;;;;;;;;;;;;28.59;39.60;94152.72;4975641;28;9207;-63
2023/05/28 11:57:34;;;;;;;;;;;;;;;28.61;39.38;94161.22;5013899;28;7221;-62
2023/05/28 12:00:18;;;;;;;;;;;;;;;28.60;39.72;94152.16;5020290;28;7043;-63
2023/05/28 12:02:56;;;;;;;;;;;;;;;28.59;39.28;94142.41;5016687;28;7212;-63
2023/05/28 12:05:22;;;;;;;;;;;;;;;28.62;39.02;94146.88;5016533;28;9025;-63
2023/05/28 12:07:50;;;;;;;;;;;;;;;28.63;39.66;94147.59;5016501;28;9235;-62
2023/05/28 12:10:30;;;;;;;;;;;;;;;28.60;39.35;94138.34;5015741;28;9011;-62
2023/05/28 12:13:00;;;;;;;;;;;;;;;28.63;39.47;94142.06;5013249;28;7117;-63
2023/05/28 12:15:34;;;;;;;;;;;;;;;28.64;39.01;94146.31;4997027;28;6986;-63
2023/05/28 12:18:09;;;;;;;;;;;;;;;28.63;39.31;94142.81;5014918;28;7078;-63
2023/05/28 12:20:43;;;;;;;;;;;;;;;28.65;39.11;94145.78;5027734;28;7270;-62
2023/05/28 12:23:12;;;;;;;;;;;;;;;28.66;39.24;94141.75;5015341;28;7021;-63
2023/05/28 12:25:52;;;;;;;;;;;;;;;28.67;39.15;94137.69;5012203;28;7349;-63
2023/05/28 12:28:27;;;;;;;;;;;;;;;28.69;39.02;94139.91;5038296;28;8737;-62
2023/05/28 12:31:03;;;;;;;;;;;;;;;28.69;39.27;94132.34;5054875;28;7110;-62
2023/05/28 12:33:41;;;;;;;;;;;;;;;28.67;39.23;94126.59;5053839;28;7257;-62
2023/05/28 12:36:26;;;;;;;;;;;;;;;28.68;38.88;94128.09;5043491;28;7246;-62
2023/05/28 12:39:20;;;;;;;;;;;;;;;28.73;38.85;94124.44;5046315;28;9032;-62
2023/05/28 12:42:12;;;;;;;;;;;;;;;28.74;39.15;94114.13;4970896;28;7151;-62
2023/05/28 12:44:40;;;;;;;;;;;;;;;28.76;39.64;94117.84;4993094;28;7377;-62
2023/05/28 12:47:06;;;;;;;;;;;;;;;28.77;39.71;94111.03;4972874;28;9189;-62
2023/05/28 12:49:47;;;;;;;;;;;;;;;28.79;39.23;94108.47;4957532;28;7077;-62
2023/05/28 12:52:15;;;;;;;;;;;;;;;28.81;39.51;94103.16;4964523;28;7045;-62
2023/05/28 12:55:02;;;;;;;;;;;;;;;28.82;39.93;94110.16;4938784;28;6999;-64
2023/05/28 12:57:39;;;;;;;;;;;;;;;28.82;39.09;94104.63;4969621;28;7275;-62
2023/05/28 13:00:33;;;;;;;;;;;;;;;28.87;39.18;94098.22;4969818;28;7045;-63
2023/05/28 13:03:16;;;;;;;;;;;;;;;28.87;39.78;94097.47;4973512;28;8941;-63
2023/05/28 13:05:47;;;;;;;;;;;;;;;28.89;39.47;94095.66;4956670;28;6998;-63
2023/05/28 13:08:26;;;;;;;;;;;;;;;28.88;39.67;94102.44;4957109;28;7414;-63
2023/05/28 13:10:52;;;;;;;;;;;;;;;28.89;39.70;94098.41;4989060;28;7424;-63
2023/05/28 13:13:28;;;;;;;;;;;;;;;28.87;40.06;94089.16;4957579;28;7196;-62
2023/05/28 13:16:39;;;;;;;;;;;;;;;28.90;40.23;94093.63;4972261;28;7046;-62
2023/05/28 13:19:36;;;;;;;;;;;;;;;28.91;39.41;94090.31;5015290;28;8470;-63
2023/05/28 13:22:02;;;;;;;;;;;;;;;28.89;39.42;94087.34;5062748;28;8777;-63
2023/05/28 13:24:29;;;;;;;;;;;;;;;28.91;40.03;94082.00;5049464;28;7138;-63
2023/05/28 13:26:56;;;;;;;;;;;;;;;28.97;39.72;94076.34;5047221;28;6944;-63
2023/05/28 13:29:25;;;;;;;;;;;;;;;28.97;39.82;94074.31;5064030;28;8219;-63
2023/05/28 13:31:52;;;;;;;;;;;;;;;28.99;39.81;94073.78;5031519;28;7104;-62
2023/05/28 13:34:49;;;;;;;;;;;;;;;29.00;39.35;94067.69;5033935;28;7260;-62
2023/05/28 13:37:27;;;;;;;;;;;;;;;29.02;39.61;94062.34;5011227;28;7765;-63
2023/05/28 13:39:57;;;;;;;;;;;;;;;29.02;40.16;94067.13;4993844;28;8803;-63